Time;durP1;ratioP1;P1;durP2;ratioP2;P2;SDS_P1;SDS_P2;PMS_P1;PMS_P2;Temp;Humidity;BMP_temperature;BMP_pressure;BME280_temperature;BME280_humidity;BME280_pressure;Samples;Min_cycle;Max_cycle;Signal;HPM_P1;HPM_P2
2021/12/15 00:01:53;;;;;;;20.55;11.23;;;;;;;2.21;75.44;100391.28;5299396;27;33088;-70
2021/12/15 00:04:21;;;;;;;31.48;14.52;;;;;;;2.76;72.95;100390.84;5300003;27;35926;-70
2021/12/15 00:06:49;;;;;;;26.92;12.93;;;;;;;2.36;75.06;100391.88;5299535;27;34096;-70
2021/12/15 00:09:17;;;;;;;20.92;11.23;;;;;;;3.51;70.84;100386.66;5299458;27;34542;-70
2021/12/15 00:11:46;;;;;;;18.75;11.65;;;;;;;2.53;74.14;100387.41;5299442;27;34079;-70
2021/12/15 00:14:17;;;;;;;22.70;11.50;;;;;;;2.31;75.67;100375.41;5299807;27;35931;-70
2021/12/15 00:16:46;;;;;;;17.08;9.40;;;;;;;2.21;76.23;100379.31;5298745;27;34538;-70
2021/12/15 00:19:14;;;;;;;22.95;10.90;;;;;;;3.13;73.28;100371.63;5299934;27;34616;-70
2021/12/15 00:21:42;;;;;;;26.83;12.13;;;;;;;2.98;72.37;100381.34;5299387;27;34775;-70
2021/12/15 00:24:10;;;;;;;26.05;13.30;;;;;;;3.26;71.83;100370.34;5299579;27;35309;-70
2021/12/15 00:26:39;;;;;;;33.97;14.38;;;;;;;3.06;72.06;100379.94;5299376;27;34738;-70
2021/12/15 00:29:07;;;;;;;23.10;10.75;;;;;;;3.26;71.11;100374.62;5300779;27;33484;-70
2021/12/15 00:53:13;;;;;;;19.75;10.75;;;;;;;3.11;73.42;100388.72;5299883;27;36736;-70
2021/12/15 00:55:43;;;;;;;25.33;10.57;;;;;;;2.66;75.11;100391.31;5300743;27;34636;-70
2021/12/15 00:58:11;;;;;;;22.75;11.00;;;;;;;3.74;71.39;100390.00;5300439;27;34491;-71
2021/12/15 01:00:49;;;;;;;20.25;11.25;;;;;;;3.20;72.97;100391.59;5300839;27;34217;-70
2021/12/15 01:07:33;;;;;;;22.48;10.70;;;;;;;3.03;73.80;100395.25;5300314;27;35327;-70
2021/12/15 01:10:02;;;;;;;22.20;9.68;;;;;;;2.80;74.67;100404.69;5300595;27;33705;-70
2021/12/15 01:20:58;;;;;;;24.55;11.27;;;;;;;2.21;76.53;100406.72;5300526;27;34484;-70
2021/12/15 01:23:28;;;;;;;26.45;13.45;;;;;;;2.80;74.91;100408.12;5299964;27;34004;-70
2021/12/15 01:26:04;;;;;;;25.45;12.73;;;;;;;2.18;76.72;100404.88;5300135;27;36001;-70
2021/12/15 01:28:32;;;;;;;23.20;12.47;;;;;;;2.60;75.38;100401.38;5300149;27;35131;-70
2021/12/15 01:31:01;;;;;;;18.50;10.13;;;;;;;2.24;76.72;100406.81;5300136;27;33689;-70
2021/12/15 01:33:31;;;;;;;28.73;14.13;;;;;;;2.64;74.95;100398.97;5300318;27;34018;-70
2021/12/15 01:36:00;;;;;;;19.85;10.63;;;;;;;2.73;74.51;100405.28;5300207;27;35967;-70
2021/12/15 01:38:31;;;;;;;22.02;12.93;;;;;;;2.50;74.94;100410.41;5299885;27;34399;-70
2021/12/15 01:41:00;;;;;;;26.65;13.75;;;;;;;3.14;73.09;100393.06;5300566;27;34376;-70
2021/12/15 01:49:12;;;;;;;26.50;13.18;;;;;;;2.59;75.01;100391.91;5297204;27;35238;-70
2021/12/15 01:51:42;;;;;;;27.65;15.80;;;;;;;2.55;74.42;100401.19;5300078;27;34386;-69
2021/12/15 01:54:12;;;;;;;30.15;14.70;;;;;;;2.18;76.41;100407.44;5298635;27;33963;-71
2021/12/15 01:56:40;;;;;;;30.40;15.88;;;;;;;2.57;75.00;100406.41;5298641;27;35143;-71
2021/12/15 01:59:08;;;;;;;28.33;14.05;;;;;;;2.89;73.83;100406.75;5299414;27;34511;-70
2021/12/15 02:01:37;;;;;;;39.15;17.85;;;;;;;3.33;71.85;100404.91;5300252;27;33473;-69
2021/12/15 02:04:07;;;;;;;33.50;15.27;;;;;;;2.54;74.59;100404.59;5299568;27;34469;-69
2021/12/15 02:06:42;;;;;;;35.05;16.85;;;;;;;2.42;74.81;100401.56;5299717;27;35101;-70
2021/12/15 02:09:13;;;;;;;30.73;15.55;;;;;;;2.35;75.36;100400.44;5299240;27;35262;-70
2021/12/15 02:11:41;;;;;;;26.12;14.80;;;;;;;2.22;76.29;100398.16;5298074;27;34447;-69
2021/12/15 02:14:11;;;;;;;31.52;15.93;;;;;;;2.44;75.04;100397.34;5298947;27;33976;-70
2021/12/15 02:16:39;;;;;;;34.03;16.23;;;;;;;2.30;75.50;100394.22;5300212;27;35210;-70
2021/12/15 02:19:07;;;;;;;28.42;16.33;;;;;;;2.43;75.09;100396.44;5278981;27;35456;-70
2021/12/15 02:21:36;;;;;;;38.72;17.48;;;;;;;2.05;76.55;100395.81;5299929;27;34296;-69
2021/12/15 02:24:04;;;;;;;34.40;18.35;;;;;;;2.75;74.65;100394.22;5299415;27;33573;-69
2021/12/15 02:26:37;;;;;;;35.97;18.85;;;;;;;2.72;73.26;100389.00;5300128;27;35233;-69
2021/12/15 02:29:14;;;;;;;34.70;18.15;;;;;;;2.89;73.04;100392.16;5299506;27;34684;-70
2021/12/15 02:39:49;;;;;;;41.40;20.60;;;;;;;3.04;72.01;100397.03;5293878;27;159467;-69
2021/12/15 02:42:19;;;;;;;37.20;19.02;;;;;;;2.48;72.14;100404.34;5300251;27;33720;-69
2021/12/15 02:44:47;;;;;;;36.97;20.35;;;;;;;2.03;74.57;100406.81;5299405;27;33975;-69
2021/12/15 02:47:21;;;;;;;38.22;20.75;;;;;;;1.70;75.66;100402.94;5299853;27;35654;-69
2021/12/15 02:49:51;;;;;;;41.03;21.42;;;;;;;1.77;76.16;100401.50;5299403;27;34731;-70
2021/12/15 02:52:19;;;;;;;32.50;19.30;;;;;;;1.87;75.01;100413.03;5280324;27;34480;-70
2021/12/15 02:54:47;;;;;;;36.30;19.45;;;;;;;2.21;73.95;100402.44;5299808;27;33920;-70
2021/12/15 02:57:17;;;;;;;35.08;18.70;;;;;;;2.42;72.61;100399.84;5300079;27;35925;-70
2021/12/15 03:05:13;;;;;;;37.28;19.05;;;;;;;1.91;74.92;100394.38;5298596;27;32452;-70
2021/12/15 03:16:03;;;;;;;39.10;19.40;;;;;;;2.17;73.87;100391.97;5299707;27;34015;-70
2021/12/15 03:18:31;;;;;;;44.28;21.48;;;;;;;1.39;75.77;100387.91;5299758;27;35125;-70
2021/12/15 03:21:11;;;;;;;35.47;19.25;;;;;;;1.76;74.35;100375.75;5300226;27;34450;-70
2021/12/15 03:23:52;;;;;;;38.85;18.87;;;;;;;1.23;76.93;100377.81;5299704;27;33474;-69
2021/12/15 03:26:25;;;;;;;44.00;19.98;;;;;;;1.10;77.50;100369.56;5300151;27;34678;-70
2021/12/15 03:34:49;;;;;;;36.97;17.90;;;;;;;1.84;74.20;100369.25;5299803;27;34188;-70
2021/12/15 03:37:23;;;;;;;36.92;16.75;;;;;;;1.71;74.72;100362.72;5300126;27;34052;-70
2021/12/15 03:40:37;;;;;;;37.88;19.50;;;;;;;2.08;73.13;100372.81;5299523;27;35989;-70
2021/12/15 03:43:11;;;;;;;33.42;16.67;;;;;;;2.13;72.97;100375.56;5293136;27;34481;-70
2021/12/15 03:45:47;;;;;;;35.17;19.45;;;;;;;1.41;75.73;100376.06;5300146;27;33550;-70
2021/12/15 03:48:19;;;;;;;38.15;18.55;;;;;;;1.70;74.37;100381.53;5280081;27;34777;-70
2021/12/15 03:50:47;;;;;;;39.25;18.77;;;;;;;1.85;74.38;100378.69;5300091;27;34961;-70
2021/12/15 03:53:17;;;;;;;35.22;19.27;;;;;;;1.23;76.63;100382.94;5299468;27;34612;-70
2021/12/15 03:55:46;;;;;;;35.80;19.23;;;;;;;1.47;75.80;100390.81;5300082;27;34699;-70
2021/12/15 03:58:16;;;;;;;35.92;19.33;;;;;;;2.02;74.26;100398.25;5280183;27;33838;-70
2021/12/15 04:00:47;;;;;;;37.05;19.42;;;;;;;2.68;71.24;100392.25;5300279;27;34912;-70
2021/12/15 04:03:19;;;;;;;32.28;18.92;;;;;;;2.52;70.63;100390.78;5298598;27;34616;-70
2021/12/15 04:05:47;;;;;;;36.47;17.87;;;;;;;2.22;71.81;100380.19;5280489;27;34299;-70
2021/12/15 04:08:15;;;;;;;42.08;18.75;;;;;;;2.49;70.24;100382.06;5299552;27;33860;-70
2021/12/15 04:10:43;;;;;;;41.75;17.80;;;;;;;1.54;73.90;100382.56;5299307;27;35311;-70
2021/12/15 04:13:13;;;;;;;41.80;19.00;;;;;;;1.97;72.43;100389.47;5299300;27;34597;-70
2021/12/15 04:15:55;;;;;;;38.80;18.52;;;;;;;2.90;68.43;100393.94;5299938;27;33536;-70
2021/12/15 04:18:24;;;;;;;39.05;18.70;;;;;;;2.00;70.46;100397.31;5299321;27;35062;-70
2021/12/15 04:20:54;;;;;;;30.12;16.60;;;;;;;1.59;72.44;100400.72;5299695;27;34984;-71
2021/12/15 04:23:22;;;;;;;35.38;18.23;;;;;;;2.05;71.32;100398.38;5298108;27;34506;-70
2021/12/15 04:25:52;;;;;;;37.42;17.25;;;;;;;1.89;71.04;100401.16;5299773;27;34384;-70
2021/12/15 04:28:39;;;;;;;38.53;18.30;;;;;;;2.20;70.13;100392.09;5299304;27;34871;-70
2021/12/15 04:31:08;;;;;;;;;;;;;;;2.03;69.32;100389.75;5301062;27;35005;-70
2021/12/15 04:33:48;;;;;;;36.80;18.37;;;;;;;1.11;72.47;100385.84;5299236;27;34330;-70
2021/12/15 04:36:19;;;;;;;133.63;47.53;;;;;;;1.22;72.63;100394.91;5297999;27;33716;-70
2021/12/15 04:38:47;;;;;;;42.72;23.10;;;;;;;1.12;72.58;100396.16;5298518;27;33963;-70
2021/12/15 04:41:17;;;;;;;49.55;22.25;;;;;;;1.14;73.06;100402.22;5299250;27;35163;-70
2021/12/15 04:44:11;;;;;;;45.53;19.45;;;;;;;1.06;73.50;100411.28;5299064;27;33544;-70
2021/12/15 04:46:56;;;;;;;38.35;18.65;;;;;;;1.41;72.30;100416.22;5299778;27;33801;-70
2021/12/15 04:49:27;;;;;;;37.35;16.52;;;;;;;1.38;71.25;100416.06;5298915;27;33991;-70
2021/12/15 04:51:55;;;;;;;24.50;13.95;;;;;;;2.38;66.85;100413.41;5279745;27;35354;-70
2021/12/15 04:54:23;;;;;;;37.20;16.90;;;;;;;1.41;69.57;100409.41;5298968;27;34456;-70
2021/12/15 04:56:52;;;;;;;30.00;15.40;;;;;;;0.86;73.13;100415.50;5299438;27;33467;-70
2021/12/15 04:59:21;;;;;;;30.15;16.42;;;;;;;1.80;69.12;100421.28;5298482;27;34627;-70
2021/12/15 05:01:49;;;;;;;39.05;16.95;;;;;;;1.71;68.87;100419.22;5299537;27;35144;-70
2021/12/15 05:04:17;;;;;;;33.50;18.55;;;;;;;0.89;71.17;100425.91;5297592;27;35331;-70
2021/12/15 05:06:45;;;;;;;35.67;16.73;;;;;;;0.35;73.56;100427.66;5299682;27;34425;-70
2021/12/15 05:09:14;;;;;;;36.97;15.90;;;;;;;1.26;70.68;100422.44;5299045;27;34050;-69
2021/12/15 05:11:44;;;;;;;31.35;15.85;;;;;;;1.42;70.16;100425.69;5299445;27;35100;-70
2021/12/15 05:14:12;;;;;;;30.33;15.82;;;;;;;1.32;69.95;100432.97;5299081;27;34514;-70
2021/12/15 05:16:40;;;;;;;28.08;15.15;;;;;;;1.73;69.22;100444.94;5300027;27;33601;-70
2021/12/15 05:19:09;;;;;;;24.63;15.00;;;;;;;1.84;68.98;100433.47;5300431;27;34843;-70
2021/12/15 05:21:36;;;;;;;31.77;15.85;;;;;;;1.24;70.98;100444.59;5300475;27;35132;-70
2021/12/15 05:24:14;;;;;;;33.55;16.70;;;;;;;0.54;75.11;100453.34;5300061;27;35332;-70
2021/12/15 05:26:42;;;;;;;25.40;14.90;;;;;;;0.66;75.72;100447.94;5300629;27;33692;-70
2021/12/15 05:29:10;;;;;;;30.77;15.90;;;;;;;1.39;73.27;100443.50;5300141;27;33855;-70
2021/12/15 05:31:39;;;;;;;31.33;15.57;;;;;;;1.09;73.91;100449.00;5299933;27;34953;-70
2021/12/15 05:34:08;;;;;;;33.83;15.23;;;;;;;0.64;76.46;100456.38;5299932;27;33715;-70
2021/12/15 05:36:36;;;;;;;35.45;17.35;;;;;;;1.64;72.02;100454.03;5300443;27;33959;-70
2021/12/15 05:39:06;;;;;;;33.90;15.15;;;;;;;1.80;71.78;100460.69;5280094;27;34701;-70
2021/12/15 05:41:35;;;;;;;30.33;14.80;;;;;;;1.55;72.76;100457.87;5300497;27;35402;-70
2021/12/15 05:44:04;;;;;;;25.52;14.30;;;;;;;1.18;74.13;100463.94;5299930;27;34488;-70
2021/12/15 05:46:33;;;;;;;29.05;14.57;;;;;;;1.80;72.46;100457.25;5300026;27;33761;-70
2021/12/15 05:49:03;;;;;;;30.05;15.82;;;;;;;2.03;71.60;100461.66;5299016;27;34898;-70
2021/12/15 05:51:31;;;;;;;28.98;16.23;;;;;;;1.30;75.13;100464.50;5300322;27;35032;-69
2021/12/15 05:54:00;;;;;;;30.33;16.15;;;;;;;1.14;75.83;100468.06;5298455;27;35187;-69
2021/12/15 05:56:28;;;;;;;30.58;14.77;;;;;;;1.55;74.16;100471.59;5299763;27;34376;-70
2021/12/15 05:58:56;;;;;;;35.35;15.65;;;;;;;1.27;76.13;100478.09;5299220;27;34866;-69
2021/12/15 06:01:24;;;;;;;29.35;16.15;;;;;;;1.27;77.11;100479.75;5300184;27;35691;-70
2021/12/15 06:03:52;;;;;;;28.42;15.95;;;;;;;1.23;77.24;100480.44;5299932;27;34508;-69
2021/12/15 06:06:20;;;;;;;30.62;16.00;;;;;;;1.26;76.67;100484.00;5300443;27;33558;-70
2021/12/15 06:08:48;;;;;;;30.90;16.37;;;;;;;1.15;76.99;100487.78;5299661;27;34692;-71
2021/12/15 06:11:17;;;;;;;35.13;16.92;;;;;;;1.31;76.14;100491.94;5299907;27;35072;-70
2021/12/15 06:13:47;;;;;;;38.78;18.62;;;;;;;1.23;76.53;100493.25;5298374;27;34453;-71
2021/12/15 06:16:18;;;;;;;37.13;17.35;;;;;;;1.38;76.05;100496.53;5300798;27;33640;-72
2021/12/15 06:18:48;;;;;;;37.95;18.15;;;;;;;1.54;75.98;100504.91;5299756;27;34140;-71
2021/12/15 06:21:18;;;;;;;45.05;19.45;;;;;;;1.10;77.91;100515.78;5300419;27;35157;-71
2021/12/15 06:23:48;;;;;;;32.72;18.30;;;;;;;0.69;79.31;100518.94;5298683;27;34490;-70
2021/12/15 06:26:17;;;;;;;38.42;18.85;;;;;;;0.97;78.73;100526.28;5300129;27;33839;-70
2021/12/15 06:28:46;;;;;;;34.92;18.83;;;;;;;0.85;78.81;100526.59;5299741;27;33868;-70
2021/12/15 06:31:16;;;;;;;83.22;37.65;;;;;;;1.12;78.00;100526.13;5299706;27;35041;-70
2021/12/15 06:33:46;;;;;;;40.00;19.60;;;;;;;1.98;74.36;100519.69;5297418;27;34724;-70
2021/12/15 06:36:20;;;;;;;41.05;20.75;;;;;;;1.00;77.40;100525.53;5300086;27;34145;-69
2021/12/15 06:38:53;;;;;;;46.00;24.15;;;;;;;1.52;76.35;100527.94;5299416;27;33999;-69
2021/12/15 06:41:23;;;;;;;46.80;25.25;;;;;;;2.23;73.23;100531.00;5298653;27;36005;-69
2021/12/15 06:43:55;;;;;;;38.33;20.90;;;;;;;1.62;74.72;100527.50;5299567;27;35365;-70
2021/12/15 06:59:59;;;;;;;31.45;16.37;;;;;;;1.32;76.91;100533.06;5299708;27;34025;-73
2021/12/15 07:02:27;;;;;;;41.67;19.05;;;;;;;1.11;77.92;100532.94;5300175;27;35073;-72
2021/12/15 07:04:56;;;;;;;32.75;17.15;;;;;;;1.05;78.94;100540.34;5299759;27;34535;-71
2021/12/15 07:07:24;;;;;;;33.35;18.00;;;;;;;1.60;76.28;100549.69;5300013;27;33568;-69
2021/12/15 07:09:51;;;;;;;35.83;17.15;;;;;;;1.62;76.17;100553.19;5299523;27;34781;-72
2021/12/15 07:12:20;;;;;;;34.55;19.42;;;;;;;1.00;78.81;100551.19;5300211;27;35956;-74
2021/12/15 07:14:47;;;;;;;41.67;19.98;;;;;;;1.61;76.66;100548.00;5299044;27;34309;-74
2021/12/15 07:17:21;;;;;;;50.12;20.00;;;;;;;1.43;77.12;100553.16;5300275;27;33771;-74
2021/12/15 07:22:37;;;;;;;41.90;20.67;;;;;;;2.18;75.38;100548.78;5300184;27;34916;-73
2021/12/15 07:25:06;;;;;;;54.30;27.23;;;;;;;1.33;79.07;100562.16;5299735;27;34596;-73
2021/12/15 07:27:34;;;;;;;43.10;19.80;;;;;;;1.36;79.45;100557.16;5299554;27;34524;-73
2021/12/15 07:30:04;;;;;;;38.05;18.60;;;;;;;1.41;79.28;100565.06;5297130;27;34807;-68
2021/12/15 07:32:32;;;;;;;45.75;20.80;;;;;;;1.58;78.56;100569.28;5298656;27;35058;-69
2021/12/15 07:35:00;;;;;;;49.20;23.90;;;;;;;1.80;78.09;100562.53;5299867;27;35322;-73
2021/12/15 07:37:28;;;;;;;51.63;21.45;;;;;;;1.54;79.47;100562.25;5298563;27;33725;-71
2021/12/15 07:39:59;;;;;;;43.92;20.30;;;;;;;1.90;78.24;100562.13;5299314;27;34776;-75
2021/12/15 07:42:41;;;;;;;41.78;21.08;;;;;;;2.62;75.29;100566.88;5300201;27;34237;-73
2021/12/15 07:45:11;;;;;;;52.62;20.58;;;;;;;2.64;75.76;100560.09;5299371;27;34545;-73
2021/12/15 07:47:39;;;;;;;48.20;21.83;;;;;;;2.98;75.13;100562.34;5299795;27;33630;-72
2021/12/15 07:50:07;;;;;;;37.72;18.95;;;;;;;2.72;76.16;100569.00;5299293;27;33792;-73
2021/12/15 07:52:35;;;;;;;47.78;22.23;;;;;;;2.78;76.66;100574.41;5300088;27;35096;-74
2021/12/15 07:55:04;;;;;;;45.28;19.52;;;;;;;2.13;79.21;100567.38;5299469;27;35213;-73
2021/12/15 07:57:31;;;;;;;39.33;18.77;;;;;;;1.76;80.85;100563.22;5298710;27;34295;-74
2021/12/15 07:59:59;;;;;;;36.92;18.92;;;;;;;2.50;78.16;100571.50;5299328;27;34583;-74
2021/12/15 08:02:28;;;;;;;36.35;17.67;;;;;;;2.46;78.31;100573.06;5299334;27;36180;-73
2021/12/15 08:04:56;;;;;;;39.95;17.83;;;;;;;3.16;75.88;100587.03;5299343;27;35094;-72
2021/12/15 08:07:24;;;;;;;34.60;16.02;;;;;;;3.10;75.95;100586.78;5299775;27;34737;-72
2021/12/15 08:09:52;;;;;;;32.85;16.90;;;;;;;3.80;73.39;100593.75;5299820;27;34873;-73
2021/12/15 08:12:20;;;;;;;45.83;18.12;;;;;;;3.35;75.18;100601.50;5299274;27;36061;-72
2021/12/15 08:14:48;;;;;;;32.42;15.45;;;;;;;3.38;74.21;100597.34;5299132;27;35333;-72
2021/12/15 08:17:16;;;;;;;32.95;17.17;;;;;;;3.64;73.54;100604.31;5299276;27;32908;-71
2021/12/15 08:19:45;;;;;;;30.58;16.73;;;;;;;3.19;75.46;100603.50;5297994;27;33644;-70
2021/12/15 08:22:13;;;;;;;43.13;17.15;;;;;;;3.80;74.20;100604.06;5299253;27;35079;-73
2021/12/15 08:24:40;;;;;;;37.33;17.60;;;;;;;3.40;75.76;100607.69;5298525;27;34443;-73
2021/12/15 08:27:09;;;;;;;40.00;17.25;;;;;;;3.27;75.68;100614.09;5299603;27;34251;-74
2021/12/15 08:29:37;;;;;;;39.78;18.62;;;;;;;3.46;75.89;100617.34;5299305;27;33851;-74
2021/12/15 08:32:05;;;;;;;39.40;18.77;;;;;;;4.09;73.34;100622.28;5299624;27;34971;-71
2021/12/15 08:34:33;;;;;;;32.97;16.45;;;;;;;4.31;72.66;100632.53;5299159;27;34137;-73
2021/12/15 08:37:01;;;;;;;53.67;18.95;;;;;;;4.50;71.68;100636.66;5299479;27;34287;-76
2021/12/15 08:39:29;;;;;;;32.97;18.30;;;;;;;4.56;71.60;100638.56;5298418;27;34082;-72
2021/12/15 08:41:58;;;;;;;35.92;18.83;;;;;;;4.75;71.04;100633.19;5299426;27;35137;-75
2021/12/15 08:44:26;;;;;;;39.78;19.73;;;;;;;4.23;73.16;100633.97;5298754;27;34444;-74
2021/12/15 08:46:54;;;;;;;32.70;18.55;;;;;;;4.67;71.56;100639.78;5299262;27;33571;-71
2021/12/15 08:49:23;;;;;;;37.55;17.05;;;;;;;2.96;78.49;100640.28;5299395;27;34900;-69
2021/12/15 08:51:51;;;;;;;33.65;18.12;;;;;;;3.52;78.17;100641.66;5300210;27;34941;-71
2021/12/15 08:54:21;;;;;;;38.42;19.37;;;;;;;3.39;77.57;100642.88;5299451;27;35359;-70
2021/12/15 08:56:50;;;;;;;39.40;20.15;;;;;;;2.70;81.20;100634.94;5299072;27;33765;-73
2021/12/15 08:59:18;;;;;;;30.35;16.37;;;;;;;3.08;79.89;100635.62;5300108;27;34173;-75
2021/12/15 09:01:47;;;;;;;36.97;15.93;;;;;;;3.00;80.88;100637.91;5300479;27;35852;-69
2021/12/15 09:04:17;;;;;;;43.03;19.98;;;;;;;4.00;77.79;100646.03;5298799;27;34562;-73
2021/12/15 09:06:47;;;;;;;77.37;37.13;;;;;;;4.25;76.30;100636.59;5300621;27;33301;-70
2021/12/15 09:09:16;;;;;;;121.87;53.45;;;;;;;4.18;75.93;100635.50;5300327;27;33862;-71
2021/12/15 09:11:45;;;;;;;75.78;32.95;;;;;;;4.83;74.74;100637.72;5298951;27;34059;-75
2021/12/15 09:14:15;;;;;;;56.00;26.75;;;;;;;3.71;78.26;100634.66;5300152;27;34558;-76
2021/12/15 09:16:51;;;;;;;39.75;19.10;;;;;;;5.28;75.23;100629.75;5299984;27;33474;-76
2021/12/15 09:19:19;;;;;;;36.95;18.73;;;;;;;5.83;70.83;100621.06;5299861;27;34022;-72
2021/12/15 09:21:51;;;;;;;37.85;19.40;;;;;;;6.70;68.85;100623.44;5299913;27;35389;-76
2021/12/15 09:24:20;;;;;;;35.38;18.23;;;;;;;6.45;68.74;100620.22;5299904;27;34467;-73
2021/12/15 09:26:49;;;;;;;37.60;18.30;;;;;;;7.50;65.21;100620.16;5299596;27;33703;-71
2021/12/15 09:29:17;;;;;;;36.08;17.52;;;;;;;7.78;63.21;100622.53;5300107;27;34766;-73
2021/12/15 09:31:46;;;;;;;35.15;16.75;;;;;;;7.60;64.70;100622.12;5299599;27;34765;-75
2021/12/15 09:34:18;;;;;;;56.00;25.05;;;;;;;7.60;63.67;100625.56;5300216;27;35403;-69
2021/12/15 09:36:48;;;;;;;109.50;46.37;;;;;;;8.74;60.16;100616.59;5299706;27;33901;-70
2021/12/15 09:39:28;;;;;;;105.87;43.15;;;;;;;8.65;60.38;100619.91;5300169;27;34688;-69
2021/12/15 09:42:35;;;;;;;43.25;23.85;;;;;;;6.45;68.00;100617.63;5299086;27;35097;-69
2021/12/15 09:45:24;;;;;;;78.53;39.72;;;;;;;7.71;63.94;100620.66;5300014;27;34429;-69
2021/12/15 10:02:08;;;;;;;29.27;15.88;;;;;;;11.25;50.66;100618.81;5283603;27;34355;-72
2021/12/15 10:04:46;;;;;;;31.67;17.70;;;;;;;10.94;50.90;100615.94;5300034;27;34758;-74
2021/12/15 10:07:20;;;;;;;27.25;15.13;;;;;;;9.84;53.58;100614.75;5300072;27;34550;-69
2021/12/15 10:19:17;;;;;;;35.40;19.65;;;;;;;12.88;46.07;100617.72;5299568;27;34500;-75
2021/12/15 10:21:22;;;;;;;32.67;18.43;;;;;;;13.53;44.87;100620.28;5289643;27;33243;-75
2021/12/15 10:23:52;;;;;;;28.85;16.45;;;;;;;13.92;43.60;100610.53;5299933;27;34840;-75
2021/12/15 10:26:21;;;;;;;30.17;16.48;;;;;;;12.37;47.46;100621.09;5299521;27;35920;-76
2021/12/15 10:28:52;;;;;;;29.83;16.98;;;;;;;13.60;43.81;100615.91;5298241;27;34419;-75
2021/12/15 10:31:24;;;;;;;27.70;15.75;;;;;;;13.98;43.48;100622.78;5299470;27;33655;-76
2021/12/15 10:34:03;;;;;;;29.55;16.12;;;;;;;15.04;40.83;100619.50;5298177;27;34042;-74
2021/12/15 10:36:33;;;;;;;31.85;17.00;;;;;;;13.68;42.96;100623.72;5299383;27;35151;-71
2021/12/15 10:39:07;;;;;;;29.02;16.08;;;;;;;13.19;42.88;100628.16;5299009;27;34611;-75
2021/12/15 10:41:39;;;;;;;27.05;14.85;;;;;;;12.31;45.87;100628.03;5298906;27;34637;-75
2021/12/15 10:44:13;;;;;;;30.33;15.95;;;;;;;13.07;45.47;100631.62;5299424;27;34184;-75
2021/12/15 10:46:51;;;;;;;30.83;14.68;;;;;;;12.84;44.30;100623.78;5299585;27;35138;-74
2021/12/15 10:49:24;;;;;;;27.50;15.55;;;;;;;12.28;45.32;100625.44;5300226;27;35335;-74
2021/12/15 10:52:01;;;;;;;28.65;16.20;;;;;;;12.06;46.27;100628.84;5299751;27;33711;-74
2021/12/15 10:54:34;;;;;;;26.77;15.70;;;;;;;10.65;50.00;100627.00;5300208;27;34946;-76
2021/12/15 10:57:28;;;;;;;24.58;14.68;;;;;;;9.86;51.64;100622.59;5299639;27;35100;-72
2021/12/15 10:59:57;;;;;;;27.87;14.65;;;;;;;11.61;47.45;100620.75;5291801;27;34321;-73
2021/12/15 11:02:40;;;;;;;24.58;13.18;;;;;;;11.16;48.86;100623.06;5299851;27;33571;-75
2021/12/15 11:05:10;;;;;;;33.17;15.02;;;;;;;10.21;51.64;100622.16;5298503;27;34080;-70
2021/12/15 11:07:43;;;;;;;26.35;15.02;;;;;;;9.83;52.29;100618.25;5299199;27;35989;-76
2021/12/15 11:10:26;;;;;;;28.77;14.95;;;;;;;9.78;52.75;100627.72;5298646;27;34085;-74
2021/12/15 11:13:13;;;;;;;26.73;14.40;;;;;;;9.22;54.27;100628.62;5299460;27;33590;-76
2021/12/15 11:15:43;;;;;;;28.10;15.40;;;;;;;10.72;51.14;100622.72;5299457;27;34125;-75
2021/12/15 11:18:20;;;;;;;36.65;18.42;;;;;;;9.99;52.29;100624.50;5299447;27;34519;-74
2021/12/15 11:21:01;;;;;;;123.62;47.67;;;;;;;10.43;51.69;100612.91;5299285;27;34534;-75
2021/12/15 11:23:31;;;;;;;64.65;30.30;;;;;;;10.11;52.45;100616.00;5298877;27;33472;-76
2021/12/15 11:26:11;;;;;;;80.50;37.05;;;;;;;9.30;54.58;100623.56;5299693;27;33591;-71
2021/12/15 11:28:46;;;;;;;41.65;22.70;;;;;;;9.30;54.39;100618.38;5300177;27;35864;-69
2021/12/15 11:31:18;;;;;;;33.13;18.40;;;;;;;8.91;55.67;100617.78;5298060;27;34383;-71
2021/12/15 11:33:48;;;;;;;32.90;17.65;;;;;;;8.06;57.07;100619.63;5300117;27;34677;-75
2021/12/15 11:36:27;;;;;;;33.47;19.15;;;;;;;8.33;57.22;100621.91;5299583;27;33211;-69
2021/12/15 11:39:04;;;;;;;28.23;16.08;;;;;;;8.70;56.73;100622.56;5300083;27;35004;-72
2021/12/15 11:41:44;;;;;;;27.30;16.17;;;;;;;8.03;58.61;100622.16;5299441;27;34536;-76
2021/12/15 11:44:15;;;;;;;25.45;11.95;;;;;;;7.12;60.05;100620.16;5300104;27;33444;-72
2021/12/15 11:46:58;;;;;;;22.13;11.85;;;;;;;7.28;61.19;100624.00;5296951;27;34520;-71
2021/12/15 11:49:29;;;;;;;21.05;11.77;;;;;;;6.94;61.55;100629.22;5299660;27;34918;-75
2021/12/15 11:52:14;;;;;;;19.20;9.57;;;;;;;7.50;60.14;100621.06;5299297;27;34385;-75
2021/12/15 11:54:47;;;;;;;18.27;8.65;;;;;;;7.17;61.79;100616.84;5299915;27;33548;-70
2021/12/15 11:57:28;;;;;;;19.98;9.52;;;;;;;7.72;59.50;100617.19;5298928;27;34815;-76
2021/12/15 12:00:12;;;;;;;19.15;11.02;;;;;;;7.38;59.90;100610.41;5299253;27;35008;-74
2021/12/15 12:02:43;;;;;;;24.55;12.27;;;;;;;7.35;60.76;100611.19;5299360;27;34519;-75
2021/12/15 12:05:29;;;;;;;21.60;11.50;;;;;;;7.49;60.35;100613.25;5299650;27;33654;-75
2021/12/15 12:08:06;;;;;;;25.20;12.43;;;;;;;6.68;62.81;100613.03;5299674;27;34053;-76
2021/12/15 12:10:45;;;;;;;23.05;11.80;;;;;;;6.72;62.60;100612.28;5299232;27;35838;-75
2021/12/15 12:13:25;;;;;;;22.37;12.37;;;;;;;7.16;61.69;100609.03;5297842;27;34402;-72
2021/12/15 12:16:00;;;;;;;23.62;12.90;;;;;;;6.30;64.30;100612.03;5298733;27;33656;-77
2021/12/15 12:18:30;;;;;;;24.35;12.43;;;;;;;7.05;62.37;100613.97;5298505;27;33819;-72
2021/12/15 12:21:06;;;;;;;20.88;12.02;;;;;;;5.92;66.18;100606.66;5298780;27;35035;-75
2021/12/15 12:23:35;;;;;;;22.30;11.85;;;;;;;6.06;66.17;100602.78;5280710;27;34506;-71
2021/12/15 12:26:06;;;;;;;25.45;13.15;;;;;;;6.09;65.13;100605.47;5300272;27;33779;-76
2021/12/15 12:28:38;;;;;;;20.50;10.95;;;;;;;6.72;63.92;100601.91;5299660;27;34047;-76
2021/12/15 12:31:13;;;;;;;23.85;12.10;;;;;;;6.74;63.83;100599.37;5298711;27;35851;-76
2021/12/15 12:33:41;;;;;;;20.52;10.85;;;;;;;6.64;63.24;100604.31;5299507;27;34515;-72
2021/12/15 12:36:14;;;;;;;17.12;10.30;;;;;;;6.23;65.02;100595.50;5300197;27;33490;-76
2021/12/15 12:38:49;;;;;;;20.90;10.38;;;;;;;6.42;64.72;100602.00;5300873;27;34158;-77
2021/12/15 12:41:23;;;;;;;20.60;10.60;;;;;;;6.97;62.14;100602.53;5299611;27;35032;-76
2021/12/15 12:43:55;;;;;;;22.62;11.18;;;;;;;6.24;64.50;100603.25;5281276;27;34519;-74
2021/12/15 12:46:52;;;;;;;18.98;9.65;;;;;;;5.98;65.68;100607.75;5299586;27;33540;-76
2021/12/15 12:58:02;;;;;;;25.00;12.23;;;;;;;6.02;65.05;100616.47;5299155;27;33655;-76
2021/12/15 13:00:43;;;;;;;21.35;11.27;;;;;;;6.54;63.04;100604.91;5300630;27;33633;-70
2021/12/15 13:03:18;;;;;;;14.48;8.40;;;;;;;6.11;64.30;100596.03;5299096;27;35811;-76
2021/12/15 13:05:57;;;;;;;21.20;12.35;;;;;;;6.24;64.58;100598.09;5281441;27;35264;-75
2021/12/15 13:08:36;;;;;;;18.17;10.02;;;;;;;6.60;63.36;100599.03;5300525;27;33565;-76
2021/12/15 13:11:17;;;;;;;16.60;9.73;;;;;;;7.15;61.66;100594.34;5299959;27;34084;-76
2021/12/15 13:14:11;;;;;;;23.00;10.27;;;;;;;5.91;64.94;100598.00;5300957;27;35897;-76
2021/12/15 13:16:53;;;;;;;20.42;9.98;;;;;;;6.19;64.80;100588.47;5299191;27;35371;-75
2021/12/15 13:19:29;;;;;;;15.77;8.50;;;;;;;5.96;65.39;100596.47;5281550;27;34450;-76
2021/12/15 13:30:46;;;;;;;16.80;8.68;;;;;;;6.49;63.78;100592.69;5300542;27;33522;-76
2021/12/15 13:33:19;;;;;;;17.98;9.50;;;;;;;6.61;62.92;100588.72;5300139;27;34081;-77
2021/12/15 13:35:56;;;;;;;16.00;9.13;;;;;;;6.27;63.39;100592.16;5298698;27;35179;-74
2021/12/15 13:38:31;;;;;;;17.92;9.75;;;;;;;5.96;63.90;100595.59;5300602;27;34473;-74
2021/12/15 13:41:31;;;;;;;23.00;11.48;;;;;;;5.59;65.50;100594.50;5299988;27;33670;-75
2021/12/15 13:44:35;;;;;;;18.17;10.57;;;;;;;5.44;66.40;100605.25;5300802;27;34941;-75